<?xml version="1.0" encoding="UTF-8" standalone="no" ?>
<gpx xmlns="http://www.topografix.com/GPX/1/1" xmlns:xsi="http://www.w3.org/2001/XMLSchema-instance" xsi:schemaLocation="http://www.topografix.com/GPX/1/1 http://www.topografix.com/GPX/1/1/gpx.xsd" version="1.1" creator="VisuGPX - https://www.visugpx.com">
  <metadata>
    <name>Ski Rando - Millefonds et Col Ferriere</name>
    <desc><![CDATA[Sortie CAM du 18/12/16
Pas de neige en Sud jusqu'au col veillos (2200m)]]></desc>
  </metadata>
  <trk>
    <name><![CDATA[2016-12-18 09:51]]></name>
    <desc><![CDATA[<p>Heure de départ: 12/18/2016 09:51</p><p>Heure d'arrivée: 12/18/2016 15:35</p><p>Distance: 9 km (05:44)</p><p>Temps déplacement: 01:55</p><p>Vitesse moyenne: 1,57 km/h</p><p>Vitesse moyenne mouv.: 4,7 km/h</p><p>Vitesse Max.: 27,75km/h</p><p>Altitude minimale: 2027 m</p><p>Altitude maximale: 2497 m</p><p>Vitesse de montée: 227,2 m/h</p><p>Vitesse de descente: -445,1 m/h</p><p>Gain d'altitude: 858 m</p><p>Perte d'altitude: -846 m</p><p>Temps de montée: 03:46</p><p>Temps de descente: 01:54</p><hr align="center" width="480" style="height: 2px; width: 517px"/>]]></desc>
    <trkseg>
      <trkpt lat="44.09843" lon="7.18661">
        <ele>2027.55</ele>
        <time>2016-12-18T08:51:20Z</time>
      </trkpt>
      <trkpt lat="44.09847" lon="7.18636">
        <ele>2031.75</ele>
        <time>2016-12-18T08:52:53Z</time>
      </trkpt>
      <trkpt lat="44.09863" lon="7.18646">
        <ele>2033.55</ele>
        <time>2016-12-18T09:04:32Z</time>
      </trkpt>
      <trkpt lat="44.09882" lon="7.18651">
        <ele>2035.39</ele>
        <time>2016-12-18T09:11:12Z</time>
      </trkpt>
      <trkpt lat="44.09897" lon="7.18664">
        <ele>2040.55</ele>
        <time>2016-12-18T09:11:31Z</time>
      </trkpt>
      <trkpt lat="44.09913" lon="7.18677">
        <ele>2036.56</ele>
        <time>2016-12-18T09:11:59Z</time>
      </trkpt>
      <trkpt lat="44.09931" lon="7.18688">
        <ele>2040.93</ele>
        <time>2016-12-18T09:12:13Z</time>
      </trkpt>
      <trkpt lat="44.09947" lon="7.187">
        <ele>2041.55</ele>
        <time>2016-12-18T09:12:39Z</time>
      </trkpt>
      <trkpt lat="44.09964" lon="7.18709">
        <ele>2043.71</ele>
        <time>2016-12-18T09:12:58Z</time>
      </trkpt>
      <trkpt lat="44.09982" lon="7.18722">
        <ele>2046.55</ele>
        <time>2016-12-18T09:13:19Z</time>
      </trkpt>
      <trkpt lat="44.10002" lon="7.18727">
        <ele>2054.5</ele>
        <time>2016-12-18T09:13:39Z</time>
      </trkpt>
      <trkpt lat="44.10021" lon="7.18735">
        <ele>2048.16</ele>
        <time>2016-12-18T09:14:19Z</time>
      </trkpt>
      <trkpt lat="44.10034" lon="7.18752">
        <ele>2056.54</ele>
        <time>2016-12-18T09:14:53Z</time>
      </trkpt>
      <trkpt lat="44.10048" lon="7.1877">
        <ele>2064.94</ele>
        <time>2016-12-18T09:15:39Z</time>
      </trkpt>
      <trkpt lat="44.10063" lon="7.18784">
        <ele>2067.5</ele>
        <time>2016-12-18T09:16:20Z</time>
      </trkpt>
      <trkpt lat="44.10079" lon="7.18795">
        <ele>2072.51</ele>
        <time>2016-12-18T09:16:51Z</time>
      </trkpt>
      <trkpt lat="44.10096" lon="7.18803">
        <ele>2071.51</ele>
        <time>2016-12-18T09:17:20Z</time>
      </trkpt>
      <trkpt lat="44.10112" lon="7.18817">
        <ele>2076.54</ele>
        <time>2016-12-18T09:17:56Z</time>
      </trkpt>
      <trkpt lat="44.1013" lon="7.1883">
        <ele>2088.55</ele>
        <time>2016-12-18T09:18:50Z</time>
      </trkpt>
      <trkpt lat="44.1014" lon="7.18853">
        <ele>2088.74</ele>
        <time>2016-12-18T09:19:33Z</time>
      </trkpt>
      <trkpt lat="44.10154" lon="7.18871">
        <ele>2093.52</ele>
        <time>2016-12-18T09:20:06Z</time>
      </trkpt>
      <trkpt lat="44.10164" lon="7.18892">
        <ele>2094.4</ele>
        <time>2016-12-18T09:20:32Z</time>
      </trkpt>
      <trkpt lat="44.10174" lon="7.18913">
        <ele>2096.59</ele>
        <time>2016-12-18T09:21:01Z</time>
      </trkpt>
      <trkpt lat="44.10188" lon="7.1893">
        <ele>2099.59</ele>
        <time>2016-12-18T09:21:19Z</time>
      </trkpt>
      <trkpt lat="44.10207" lon="7.18936">
        <ele>2110.27</ele>
        <time>2016-12-18T09:22:27Z</time>
      </trkpt>
      <trkpt lat="44.10226" lon="7.1894">
        <ele>2119.19</ele>
        <time>2016-12-18T09:23:18Z</time>
      </trkpt>
      <trkpt lat="44.10242" lon="7.18928">
        <ele>2122.35</ele>
        <time>2016-12-18T09:24:08Z</time>
      </trkpt>
      <trkpt lat="44.10261" lon="7.18934">
        <ele>2124.17</ele>
        <time>2016-12-18T09:25:09Z</time>
      </trkpt>
      <trkpt lat="44.10269" lon="7.18911">
        <ele>2137.54</ele>
        <time>2016-12-18T09:26:35Z</time>
      </trkpt>
      <trkpt lat="44.10286" lon="7.189">
        <ele>2142.51</ele>
        <time>2016-12-18T09:27:39Z</time>
      </trkpt>
      <trkpt lat="44.10305" lon="7.18892">
        <ele>2151.54</ele>
        <time>2016-12-18T09:28:35Z</time>
      </trkpt>
      <trkpt lat="44.10316" lon="7.18872">
        <ele>2163.55</ele>
        <time>2016-12-18T09:29:40Z</time>
      </trkpt>
      <trkpt lat="44.10331" lon="7.18858">
        <ele>2166.55</ele>
        <time>2016-12-18T09:30:42Z</time>
      </trkpt>
      <trkpt lat="44.10349" lon="7.1885">
        <ele>2171.3</ele>
        <time>2016-12-18T09:31:43Z</time>
      </trkpt>
      <trkpt lat="44.10368" lon="7.18846">
        <ele>2181.55</ele>
        <time>2016-12-18T09:32:18Z</time>
      </trkpt>
      <trkpt lat="44.10386" lon="7.18843">
        <ele>2189.73</ele>
        <time>2016-12-18T09:33:16Z</time>
      </trkpt>
      <trkpt lat="44.10396" lon="7.18822">
        <ele>2198.54</ele>
        <time>2016-12-18T09:34:33Z</time>
      </trkpt>
      <trkpt lat="44.10415" lon="7.18824">
        <ele>2195.39</ele>
        <time>2016-12-18T09:38:17Z</time>
      </trkpt>
      <trkpt lat="44.10435" lon="7.18827">
        <ele>2193.39</ele>
        <time>2016-12-18T09:38:30Z</time>
      </trkpt>
      <trkpt lat="44.10452" lon="7.18838">
        <ele>2192.97</ele>
        <time>2016-12-18T09:38:45Z</time>
      </trkpt>
      <trkpt lat="44.1047" lon="7.18847">
        <ele>2188.51</ele>
        <time>2016-12-18T09:38:58Z</time>
      </trkpt>
      <trkpt lat="44.10487" lon="7.18855">
        <ele>2163.3</ele>
        <time>2016-12-18T09:39:14Z</time>
      </trkpt>
      <trkpt lat="44.10505" lon="7.18863">
        <ele>2179.54</ele>
        <time>2016-12-18T09:39:37Z</time>
      </trkpt>
      <trkpt lat="44.10523" lon="7.18856">
        <ele>2179.39</ele>
        <time>2016-12-18T09:40:03Z</time>
      </trkpt>
      <trkpt lat="44.10541" lon="7.1886">
        <ele>2176.31</ele>
        <time>2016-12-18T09:40:21Z</time>
      </trkpt>
      <trkpt lat="44.10559" lon="7.18862">
        <ele>2171.71</ele>
        <time>2016-12-18T09:40:36Z</time>
      </trkpt>
      <trkpt lat="44.10579" lon="7.18866">
        <ele>2171.59</ele>
        <time>2016-12-18T09:40:53Z</time>
      </trkpt>
      <trkpt lat="44.10596" lon="7.18874">
        <ele>2166.19</ele>
        <time>2016-12-18T09:41:13Z</time>
      </trkpt>
      <trkpt lat="44.10614" lon="7.1888">
        <ele>2165.51</ele>
        <time>2016-12-18T09:41:32Z</time>
      </trkpt>
      <trkpt lat="44.10634" lon="7.18886">
        <ele>2168.55</ele>
        <time>2016-12-18T09:41:52Z</time>
      </trkpt>
      <trkpt lat="44.10651" lon="7.18896">
        <ele>2168.36</ele>
        <time>2016-12-18T09:42:10Z</time>
      </trkpt>
      <trkpt lat="44.10667" lon="7.18907">
        <ele>2169.36</ele>
        <time>2016-12-18T09:42:40Z</time>
      </trkpt>
      <trkpt lat="44.10687" lon="7.18912">
        <ele>2176.74</ele>
        <time>2016-12-18T09:43:10Z</time>
      </trkpt>
      <trkpt lat="44.10705" lon="7.18909">
        <ele>2178.52</ele>
        <time>2016-12-18T09:43:28Z</time>
      </trkpt>
      <trkpt lat="44.10724" lon="7.18902">
        <ele>2181.55</ele>
        <time>2016-12-18T09:56:34Z</time>
      </trkpt>
      <trkpt lat="44.10742" lon="7.18895">
        <ele>2190.15</ele>
        <time>2016-12-18T09:57:07Z</time>
      </trkpt>
      <trkpt lat="44.10761" lon="7.18894">
        <ele>2189.56</ele>
        <time>2016-12-18T09:57:32Z</time>
      </trkpt>
      <trkpt lat="44.10779" lon="7.18891">
        <ele>2194.55</ele>
        <time>2016-12-18T09:58:04Z</time>
      </trkpt>
      <trkpt lat="44.10796" lon="7.18898">
        <ele>2193.39</ele>
        <time>2016-12-18T09:58:34Z</time>
      </trkpt>
      <trkpt lat="44.10815" lon="7.18905">
        <ele>2193.52</ele>
        <time>2016-12-18T09:59:01Z</time>
      </trkpt>
      <trkpt lat="44.10832" lon="7.18914">
        <ele>2195.55</ele>
        <time>2016-12-18T09:59:30Z</time>
      </trkpt>
      <trkpt lat="44.1085" lon="7.18922">
        <ele>2202.72</ele>
        <time>2016-12-18T10:00:18Z</time>
      </trkpt>
      <trkpt lat="44.10869" lon="7.18926">
        <ele>2203.75</ele>
        <time>2016-12-18T10:00:35Z</time>
      </trkpt>
      <trkpt lat="44.10888" lon="7.18934">
        <ele>2205.63</ele>
        <time>2016-12-18T10:01:04Z</time>
      </trkpt>
      <trkpt lat="44.10904" lon="7.18945">
        <ele>2186.71</ele>
        <time>2016-12-18T10:01:32Z</time>
      </trkpt>
      <trkpt lat="44.10922" lon="7.18952">
        <ele>2206.55</ele>
        <time>2016-12-18T10:01:51Z</time>
      </trkpt>
      <trkpt lat="44.10938" lon="7.18964">
        <ele>2209.04</ele>
        <time>2016-12-18T10:02:07Z</time>
      </trkpt>
      <trkpt lat="44.10953" lon="7.18978">
        <ele>2206.71</ele>
        <time>2016-12-18T10:02:29Z</time>
      </trkpt>
      <trkpt lat="44.10972" lon="7.1899">
        <ele>2214.59</ele>
        <time>2016-12-18T10:03:09Z</time>
      </trkpt>
      <trkpt lat="44.10987" lon="7.19004">
        <ele>2212.75</ele>
        <time>2016-12-18T10:03:22Z</time>
      </trkpt>
      <trkpt lat="44.11005" lon="7.19003">
        <ele>2219.14</ele>
        <time>2016-12-18T10:03:58Z</time>
      </trkpt>
      <trkpt lat="44.11023" lon="7.18996">
        <ele>2224.91</ele>
        <time>2016-12-18T10:04:12Z</time>
      </trkpt>
      <trkpt lat="44.1104" lon="7.18983">
        <ele>2236.42</ele>
        <time>2016-12-18T10:04:32Z</time>
      </trkpt>
      <trkpt lat="44.11057" lon="7.18973">
        <ele>2227.81</ele>
        <time>2016-12-18T10:05:04Z</time>
      </trkpt>
      <trkpt lat="44.11069" lon="7.18955">
        <ele>2218.36</ele>
        <time>2016-12-18T10:05:28Z</time>
      </trkpt>
      <trkpt lat="44.11083" lon="7.18939">
        <ele>2215.76</ele>
        <time>2016-12-18T10:05:53Z</time>
      </trkpt>
      <trkpt lat="44.11096" lon="7.1892">
        <ele>2214.55</ele>
        <time>2016-12-18T10:06:20Z</time>
      </trkpt>
      <trkpt lat="44.11112" lon="7.18904">
        <ele>2222.73</ele>
        <time>2016-12-18T10:06:45Z</time>
      </trkpt>
      <trkpt lat="44.11124" lon="7.18885">
        <ele>2226.34</ele>
        <time>2016-12-18T10:07:14Z</time>
      </trkpt>
      <trkpt lat="44.11142" lon="7.18882">
        <ele>2229.55</ele>
        <time>2016-12-18T10:08:56Z</time>
      </trkpt>
      <trkpt lat="44.11161" lon="7.18875">
        <ele>2229.75</ele>
        <time>2016-12-18T10:09:23Z</time>
      </trkpt>
      <trkpt lat="44.11179" lon="7.18876">
        <ele>2236.49</ele>
        <time>2016-12-18T10:09:52Z</time>
      </trkpt>
      <trkpt lat="44.11199" lon="7.18876">
        <ele>2236.35</ele>
        <time>2016-12-18T10:10:11Z</time>
      </trkpt>
      <trkpt lat="44.11217" lon="7.18878">
        <ele>2236.55</ele>
        <time>2016-12-18T10:10:33Z</time>
      </trkpt>
      <trkpt lat="44.11235" lon="7.18872">
        <ele>2232.51</ele>
        <time>2016-12-18T10:11:09Z</time>
      </trkpt>
      <trkpt lat="44.11249" lon="7.18858">
        <ele>2225.8</ele>
        <time>2016-12-18T10:18:15Z</time>
      </trkpt>
      <trkpt lat="44.1126" lon="7.18835">
        <ele>2228.54</ele>
        <time>2016-12-18T10:18:53Z</time>
      </trkpt>
      <trkpt lat="44.11263" lon="7.1881">
        <ele>2222.75</ele>
        <time>2016-12-18T10:19:12Z</time>
      </trkpt>
      <trkpt lat="44.11273" lon="7.18788">
        <ele>2213.43</ele>
        <time>2016-12-18T10:19:35Z</time>
      </trkpt>
      <trkpt lat="44.11287" lon="7.18772">
        <ele>2217.57</ele>
        <time>2016-12-18T10:20:08Z</time>
      </trkpt>
      <trkpt lat="44.11305" lon="7.18766">
        <ele>2218.58</ele>
        <time>2016-12-18T10:21:37Z</time>
      </trkpt>
      <trkpt lat="44.11324" lon="7.18763">
        <ele>2218.5</ele>
        <time>2016-12-18T10:21:57Z</time>
      </trkpt>
      <trkpt lat="44.11343" lon="7.18752">
        <ele>2224.28</ele>
        <time>2016-12-18T10:22:12Z</time>
      </trkpt>
      <trkpt lat="44.11358" lon="7.18738">
        <ele>2231.34</ele>
        <time>2016-12-18T10:22:41Z</time>
      </trkpt>
      <trkpt lat="44.11378" lon="7.18738">
        <ele>2234.55</ele>
        <time>2016-12-18T10:23:31Z</time>
      </trkpt>
      <trkpt lat="44.11397" lon="7.18742">
        <ele>2252.51</ele>
        <time>2016-12-18T10:24:01Z</time>
      </trkpt>
      <trkpt lat="44.11414" lon="7.1875">
        <ele>2258.7</ele>
        <time>2016-12-18T10:24:37Z</time>
      </trkpt>
      <trkpt lat="44.11424" lon="7.18729">
        <ele>2272.31</ele>
        <time>2016-12-18T10:26:33Z</time>
      </trkpt>
      <trkpt lat="44.11429" lon="7.18702">
        <ele>2272.74</ele>
        <time>2016-12-18T10:26:59Z</time>
      </trkpt>
      <trkpt lat="44.11435" lon="7.18678">
        <ele>2279.67</ele>
        <time>2016-12-18T10:27:42Z</time>
      </trkpt>
      <trkpt lat="44.11445" lon="7.18656">
        <ele>2284.52</ele>
        <time>2016-12-18T10:28:35Z</time>
      </trkpt>
      <trkpt lat="44.11462" lon="7.18642">
        <ele>2286.39</ele>
        <time>2016-12-18T10:29:09Z</time>
      </trkpt>
      <trkpt lat="44.11479" lon="7.18634">
        <ele>2286.8</ele>
        <time>2016-12-18T10:29:51Z</time>
      </trkpt>
      <trkpt lat="44.11497" lon="7.18621">
        <ele>2298.31</ele>
        <time>2016-12-18T10:30:13Z</time>
      </trkpt>
      <trkpt lat="44.1151" lon="7.18603">
        <ele>2297.68</ele>
        <time>2016-12-18T10:30:38Z</time>
      </trkpt>
      <trkpt lat="44.11529" lon="7.18597">
        <ele>2297.43</ele>
        <time>2016-12-18T10:30:57Z</time>
      </trkpt>
      <trkpt lat="44.11545" lon="7.18587">
        <ele>2298.5</ele>
        <time>2016-12-18T10:31:16Z</time>
      </trkpt>
      <trkpt lat="44.11562" lon="7.18575">
        <ele>2302.37</ele>
        <time>2016-12-18T10:31:38Z</time>
      </trkpt>
      <trkpt lat="44.11577" lon="7.1856">
        <ele>2307.14</ele>
        <time>2016-12-18T10:32:01Z</time>
      </trkpt>
      <trkpt lat="44.11594" lon="7.18549">
        <ele>2302.55</ele>
        <time>2016-12-18T10:32:23Z</time>
      </trkpt>
      <trkpt lat="44.1161" lon="7.18537">
        <ele>2304.59</ele>
        <time>2016-12-18T10:32:47Z</time>
      </trkpt>
      <trkpt lat="44.11623" lon="7.18518">
        <ele>2313.38</ele>
        <time>2016-12-18T10:33:15Z</time>
      </trkpt>
      <trkpt lat="44.11639" lon="7.18505">
        <ele>2310.59</ele>
        <time>2016-12-18T10:34:00Z</time>
      </trkpt>
      <trkpt lat="44.11652" lon="7.18488">
        <ele>2313.38</ele>
        <time>2016-12-18T10:34:27Z</time>
      </trkpt>
      <trkpt lat="44.11668" lon="7.18475">
        <ele>2316.4</ele>
        <time>2016-12-18T10:34:49Z</time>
      </trkpt>
      <trkpt lat="44.11683" lon="7.18459">
        <ele>2314.35</ele>
        <time>2016-12-18T10:35:38Z</time>
      </trkpt>
      <trkpt lat="44.11677" lon="7.18435">
        <ele>2324.46</ele>
        <time>2016-12-18T10:37:40Z</time>
      </trkpt>
      <trkpt lat="44.11668" lon="7.1841">
        <ele>2332.34</ele>
        <time>2016-12-18T10:39:10Z</time>
      </trkpt>
      <trkpt lat="44.11681" lon="7.18392">
        <ele>2331.57</ele>
        <time>2016-12-18T10:39:48Z</time>
      </trkpt>
      <trkpt lat="44.11695" lon="7.18375">
        <ele>2338.56</ele>
        <time>2016-12-18T10:40:31Z</time>
      </trkpt>
      <trkpt lat="44.117" lon="7.1835">
        <ele>2347.75</ele>
        <time>2016-12-18T10:41:29Z</time>
      </trkpt>
      <trkpt lat="44.117" lon="7.18324">
        <ele>2350.19</ele>
        <time>2016-12-18T10:42:40Z</time>
      </trkpt>
      <trkpt lat="44.11694" lon="7.183">
        <ele>2356.55</ele>
        <time>2016-12-18T10:43:49Z</time>
      </trkpt>
      <trkpt lat="44.11699" lon="7.18276">
        <ele>2357.38</ele>
        <time>2016-12-18T10:44:31Z</time>
      </trkpt>
      <trkpt lat="44.117" lon="7.1825">
        <ele>2362.59</ele>
        <time>2016-12-18T10:45:21Z</time>
      </trkpt>
      <trkpt lat="44.11699" lon="7.18225">
        <ele>2363.35</ele>
        <time>2016-12-18T10:46:01Z</time>
      </trkpt>
      <trkpt lat="44.11708" lon="7.18201">
        <ele>2366.73</ele>
        <time>2016-12-18T10:46:37Z</time>
      </trkpt>
      <trkpt lat="44.11718" lon="7.1818">
        <ele>2370.75</ele>
        <time>2016-12-18T10:47:15Z</time>
      </trkpt>
      <trkpt lat="44.11726" lon="7.18158">
        <ele>2372.55</ele>
        <time>2016-12-18T10:48:05Z</time>
      </trkpt>
      <trkpt lat="44.11739" lon="7.1814">
        <ele>2379.35</ele>
        <time>2016-12-18T10:48:47Z</time>
      </trkpt>
      <trkpt lat="44.11752" lon="7.18121">
        <ele>2385.55</ele>
        <time>2016-12-18T10:49:24Z</time>
      </trkpt>
      <trkpt lat="44.11768" lon="7.18108">
        <ele>2395.52</ele>
        <time>2016-12-18T10:49:59Z</time>
      </trkpt>
      <trkpt lat="44.11782" lon="7.18093">
        <ele>2395.53</ele>
        <time>2016-12-18T10:50:39Z</time>
      </trkpt>
      <trkpt lat="44.11798" lon="7.1808">
        <ele>2392.38</ele>
        <time>2016-12-18T10:51:21Z</time>
      </trkpt>
      <trkpt lat="44.11812" lon="7.18064">
        <ele>2395.53</ele>
        <time>2016-12-18T10:51:53Z</time>
      </trkpt>
      <trkpt lat="44.11825" lon="7.18046">
        <ele>2394.58</ele>
        <time>2016-12-18T10:52:24Z</time>
      </trkpt>
      <trkpt lat="44.1184" lon="7.18032">
        <ele>2398.38</ele>
        <time>2016-12-18T10:52:47Z</time>
      </trkpt>
      <trkpt lat="44.11857" lon="7.18026">
        <ele>2399.54</ele>
        <time>2016-12-18T10:53:16Z</time>
      </trkpt>
      <trkpt lat="44.11875" lon="7.18032">
        <ele>2399.11</ele>
        <time>2016-12-18T10:53:40Z</time>
      </trkpt>
      <trkpt lat="44.11893" lon="7.18038">
        <ele>2411.47</ele>
        <time>2016-12-18T10:54:22Z</time>
      </trkpt>
      <trkpt lat="44.11911" lon="7.18045">
        <ele>2415.31</ele>
        <time>2016-12-18T10:54:56Z</time>
      </trkpt>
      <trkpt lat="44.11929" lon="7.18042">
        <ele>2425.48</ele>
        <time>2016-12-18T10:55:42Z</time>
      </trkpt>
      <trkpt lat="44.11946" lon="7.18029">
        <ele>2433.15</ele>
        <time>2016-12-18T10:57:07Z</time>
      </trkpt>
      <trkpt lat="44.1196" lon="7.18012">
        <ele>2438.71</ele>
        <time>2016-12-18T10:57:57Z</time>
      </trkpt>
      <trkpt lat="44.11974" lon="7.17995">
        <ele>2440.54</ele>
        <time>2016-12-18T10:58:26Z</time>
      </trkpt>
      <trkpt lat="44.11988" lon="7.1798">
        <ele>2452.31</ele>
        <time>2016-12-18T10:59:03Z</time>
      </trkpt>
      <trkpt lat="44.12003" lon="7.17967">
        <ele>2459.59</ele>
        <time>2016-12-18T10:59:41Z</time>
      </trkpt>
      <trkpt lat="44.12017" lon="7.1795">
        <ele>2462.16</ele>
        <time>2016-12-18T11:00:31Z</time>
      </trkpt>
      <trkpt lat="44.12035" lon="7.17944">
        <ele>2472.11</ele>
        <time>2016-12-18T11:01:31Z</time>
      </trkpt>
      <trkpt lat="44.12051" lon="7.1793">
        <ele>2481.55</ele>
        <time>2016-12-18T11:02:13Z</time>
      </trkpt>
      <trkpt lat="44.12068" lon="7.17922">
        <ele>2481.55</ele>
        <time>2016-12-18T11:02:53Z</time>
      </trkpt>
      <trkpt lat="44.12084" lon="7.17904">
        <ele>2485.56</ele>
        <time>2016-12-18T11:25:07Z</time>
      </trkpt>
      <trkpt lat="44.12087" lon="7.17932">
        <ele>2472.04</ele>
        <time>2016-12-18T11:25:30Z</time>
      </trkpt>
      <trkpt lat="44.12095" lon="7.17957">
        <ele>2470.73</ele>
        <time>2016-12-18T11:25:43Z</time>
      </trkpt>
      <trkpt lat="44.12105" lon="7.1798">
        <ele>2464.63</ele>
        <time>2016-12-18T11:25:54Z</time>
      </trkpt>
      <trkpt lat="44.12116" lon="7.17959">
        <ele>2459.76</ele>
        <time>2016-12-18T11:26:01Z</time>
      </trkpt>
      <trkpt lat="44.12122" lon="7.17985">
        <ele>2453.8</ele>
        <time>2016-12-18T11:26:06Z</time>
      </trkpt>
      <trkpt lat="44.12129" lon="7.1801">
        <ele>2448</ele>
        <time>2016-12-18T11:26:11Z</time>
      </trkpt>
      <trkpt lat="44.12148" lon="7.18016">
        <ele>2439.04</ele>
        <time>2016-12-18T11:26:32Z</time>
      </trkpt>
      <trkpt lat="44.12161" lon="7.18034">
        <ele>2431.37</ele>
        <time>2016-12-18T11:26:45Z</time>
      </trkpt>
      <trkpt lat="44.12178" lon="7.18021">
        <ele>2431.75</ele>
        <time>2016-12-18T11:26:52Z</time>
      </trkpt>
      <trkpt lat="44.12191" lon="7.18044">
        <ele>2425.39</ele>
        <time>2016-12-18T11:27:12Z</time>
      </trkpt>
      <trkpt lat="44.12209" lon="7.18051">
        <ele>2418.4</ele>
        <time>2016-12-18T11:27:23Z</time>
      </trkpt>
      <trkpt lat="44.12225" lon="7.18035">
        <ele>2414.75</ele>
        <time>2016-12-18T11:27:28Z</time>
      </trkpt>
      <trkpt lat="44.12245" lon="7.18023">
        <ele>2410.39</ele>
        <time>2016-12-18T11:27:33Z</time>
      </trkpt>
      <trkpt lat="44.12262" lon="7.18042">
        <ele>2405.72</ele>
        <time>2016-12-18T11:27:38Z</time>
      </trkpt>
      <trkpt lat="44.1228" lon="7.18051">
        <ele>2402.75</ele>
        <time>2016-12-18T11:27:43Z</time>
      </trkpt>
      <trkpt lat="44.12281" lon="7.18026">
        <ele>2375.55</ele>
        <time>2016-12-18T11:41:39Z</time>
      </trkpt>
      <trkpt lat="44.12299" lon="7.18016">
        <ele>2369.59</ele>
        <time>2016-12-18T11:43:06Z</time>
      </trkpt>
      <trkpt lat="44.12316" lon="7.18031">
        <ele>2371.5</ele>
        <time>2016-12-18T11:43:09Z</time>
      </trkpt>
      <trkpt lat="44.12333" lon="7.18043">
        <ele>2369.4</ele>
        <time>2016-12-18T11:43:12Z</time>
      </trkpt>
      <trkpt lat="44.12352" lon="7.18051">
        <ele>2364.68</ele>
        <time>2016-12-18T11:43:17Z</time>
      </trkpt>
      <trkpt lat="44.12369" lon="7.18064">
        <ele>2364.54</ele>
        <time>2016-12-18T11:43:22Z</time>
      </trkpt>
      <trkpt lat="44.1238" lon="7.18087">
        <ele>2363.54</ele>
        <time>2016-12-18T11:43:27Z</time>
      </trkpt>
      <trkpt lat="44.12398" lon="7.18101">
        <ele>2360.16</ele>
        <time>2016-12-18T11:43:31Z</time>
      </trkpt>
      <trkpt lat="44.12417" lon="7.18091">
        <ele>2353.79</ele>
        <time>2016-12-18T11:43:37Z</time>
      </trkpt>
      <trkpt lat="44.12435" lon="7.18098">
        <ele>2348.99</ele>
        <time>2016-12-18T11:44:17Z</time>
      </trkpt>
      <trkpt lat="44.1244" lon="7.18073">
        <ele>2341.75</ele>
        <time>2016-12-18T11:45:24Z</time>
      </trkpt>
      <trkpt lat="44.1246" lon="7.18056">
        <ele>2340.55</ele>
        <time>2016-12-18T11:45:30Z</time>
      </trkpt>
      <trkpt lat="44.12482" lon="7.18056">
        <ele>2335.84</ele>
        <time>2016-12-18T11:45:33Z</time>
      </trkpt>
      <trkpt lat="44.125" lon="7.18046">
        <ele>2330.48</ele>
        <time>2016-12-18T11:45:56Z</time>
      </trkpt>
      <trkpt lat="44.12519" lon="7.18049">
        <ele>2310.56</ele>
        <time>2016-12-18T11:46:44Z</time>
      </trkpt>
      <trkpt lat="44.12536" lon="7.18065">
        <ele>2297.84</ele>
        <time>2016-12-18T11:46:56Z</time>
      </trkpt>
      <trkpt lat="44.1255" lon="7.18082">
        <ele>2292.8</ele>
        <time>2016-12-18T11:47:02Z</time>
      </trkpt>
      <trkpt lat="44.12569" lon="7.1809">
        <ele>2288.87</ele>
        <time>2016-12-18T11:47:09Z</time>
      </trkpt>
      <trkpt lat="44.12583" lon="7.18109">
        <ele>2274.6</ele>
        <time>2016-12-18T11:47:29Z</time>
      </trkpt>
      <trkpt lat="44.12594" lon="7.18132">
        <ele>2267.75</ele>
        <time>2016-12-18T11:47:41Z</time>
      </trkpt>
      <trkpt lat="44.12613" lon="7.18143">
        <ele>2259.79</ele>
        <time>2016-12-18T11:47:52Z</time>
      </trkpt>
      <trkpt lat="44.12631" lon="7.18154">
        <ele>2249.23</ele>
        <time>2016-12-18T11:48:10Z</time>
      </trkpt>
      <trkpt lat="44.12651" lon="7.18147">
        <ele>2243.79</ele>
        <time>2016-12-18T11:48:21Z</time>
      </trkpt>
      <trkpt lat="44.12674" lon="7.18153">
        <ele>2236.04</ele>
        <time>2016-12-18T11:48:29Z</time>
      </trkpt>
      <trkpt lat="44.12695" lon="7.1816">
        <ele>2226.13</ele>
        <time>2016-12-18T11:48:34Z</time>
      </trkpt>
      <trkpt lat="44.1271" lon="7.18176">
        <ele>2221.6</ele>
        <time>2016-12-18T11:48:38Z</time>
      </trkpt>
      <trkpt lat="44.1273" lon="7.18177">
        <ele>2218.55</ele>
        <time>2016-12-18T11:48:44Z</time>
      </trkpt>
      <trkpt lat="44.1275" lon="7.1819">
        <ele>2206.6</ele>
        <time>2016-12-18T11:48:52Z</time>
      </trkpt>
      <trkpt lat="44.12772" lon="7.18188">
        <ele>2204.6</ele>
        <time>2016-12-18T11:48:56Z</time>
      </trkpt>
      <trkpt lat="44.12771" lon="7.18214">
        <ele>2196.59</ele>
        <time>2016-12-18T11:49:07Z</time>
      </trkpt>
      <trkpt lat="44.12774" lon="7.1824">
        <ele>2188.92</ele>
        <time>2016-12-18T11:50:18Z</time>
      </trkpt>
      <trkpt lat="44.12767" lon="7.18272">
        <ele>2184.58</ele>
        <time>2016-12-18T11:51:26Z</time>
      </trkpt>
      <trkpt lat="44.12776" lon="7.18295">
        <ele>2180.52</ele>
        <time>2016-12-18T11:51:33Z</time>
      </trkpt>
      <trkpt lat="44.12796" lon="7.18299">
        <ele>2181.59</ele>
        <time>2016-12-18T11:51:54Z</time>
      </trkpt>
      <trkpt lat="44.12817" lon="7.18311">
        <ele>2173.81</ele>
        <time>2016-12-18T11:52:00Z</time>
      </trkpt>
      <trkpt lat="44.12837" lon="7.18318">
        <ele>2172.55</ele>
        <time>2016-12-18T11:52:04Z</time>
      </trkpt>
      <trkpt lat="44.12853" lon="7.18333">
        <ele>2165.99</ele>
        <time>2016-12-18T11:52:15Z</time>
      </trkpt>
      <trkpt lat="44.12854" lon="7.18359">
        <ele>2159.99</ele>
        <time>2016-12-18T11:52:20Z</time>
      </trkpt>
      <trkpt lat="44.12874" lon="7.18361">
        <ele>2157.76</ele>
        <time>2016-12-18T11:52:24Z</time>
      </trkpt>
      <trkpt lat="44.12894" lon="7.18359">
        <ele>2156.59</ele>
        <time>2016-12-18T11:52:28Z</time>
      </trkpt>
      <trkpt lat="44.12912" lon="7.18363">
        <ele>2150.84</ele>
        <time>2016-12-18T11:52:32Z</time>
      </trkpt>
      <trkpt lat="44.12928" lon="7.18374">
        <ele>2150.55</ele>
        <time>2016-12-18T11:52:38Z</time>
      </trkpt>
      <trkpt lat="44.12921" lon="7.18397">
        <ele>2152.55</ele>
        <time>2016-12-18T11:59:38Z</time>
      </trkpt>
      <trkpt lat="44.12893" lon="7.18394">
        <ele>2154.55</ele>
        <time>2016-12-18T12:22:07Z</time>
      </trkpt>
      <trkpt lat="44.12877" lon="7.18379">
        <ele>2149.38</ele>
        <time>2016-12-18T12:22:19Z</time>
      </trkpt>
      <trkpt lat="44.12858" lon="7.1838">
        <ele>2153.3</ele>
        <time>2016-12-18T12:22:36Z</time>
      </trkpt>
      <trkpt lat="44.12846" lon="7.18362">
        <ele>2164.5</ele>
        <time>2016-12-18T12:23:37Z</time>
      </trkpt>
      <trkpt lat="44.12836" lon="7.18339">
        <ele>2169.16</ele>
        <time>2016-12-18T12:23:53Z</time>
      </trkpt>
      <trkpt lat="44.1283" lon="7.18362">
        <ele>2168.26</ele>
        <time>2016-12-18T12:24:42Z</time>
      </trkpt>
      <trkpt lat="44.12815" lon="7.18347">
        <ele>2170.31</ele>
        <time>2016-12-18T12:25:34Z</time>
      </trkpt>
      <trkpt lat="44.12795" lon="7.18349">
        <ele>2170.34</ele>
        <time>2016-12-18T12:25:50Z</time>
      </trkpt>
      <trkpt lat="44.12779" lon="7.18335">
        <ele>2174.53</ele>
        <time>2016-12-18T12:26:17Z</time>
      </trkpt>
      <trkpt lat="44.12768" lon="7.18314">
        <ele>2171.82</ele>
        <time>2016-12-18T12:27:22Z</time>
      </trkpt>
      <trkpt lat="44.12753" lon="7.183">
        <ele>2174.55</ele>
        <time>2016-12-18T12:28:01Z</time>
      </trkpt>
      <trkpt lat="44.12739" lon="7.18282">
        <ele>2182.03</ele>
        <time>2016-12-18T12:28:25Z</time>
      </trkpt>
      <trkpt lat="44.12724" lon="7.18267">
        <ele>2185.55</ele>
        <time>2016-12-18T12:28:49Z</time>
      </trkpt>
      <trkpt lat="44.12711" lon="7.1825">
        <ele>2184.27</ele>
        <time>2016-12-18T12:29:19Z</time>
      </trkpt>
      <trkpt lat="44.12704" lon="7.18226">
        <ele>2196.33</ele>
        <time>2016-12-18T12:30:24Z</time>
      </trkpt>
      <trkpt lat="44.12693" lon="7.18205">
        <ele>2203.13</ele>
        <time>2016-12-18T12:31:41Z</time>
      </trkpt>
      <trkpt lat="44.12683" lon="7.18184">
        <ele>2210.56</ele>
        <time>2016-12-18T12:32:21Z</time>
      </trkpt>
      <trkpt lat="44.12683" lon="7.18159">
        <ele>2216.54</ele>
        <time>2016-12-18T12:33:08Z</time>
      </trkpt>
      <trkpt lat="44.12683" lon="7.18133">
        <ele>2227.48</ele>
        <time>2016-12-18T12:33:40Z</time>
      </trkpt>
      <trkpt lat="44.12679" lon="7.18108">
        <ele>2225.54</ele>
        <time>2016-12-18T12:33:55Z</time>
      </trkpt>
      <trkpt lat="44.12673" lon="7.18082">
        <ele>2224.44</ele>
        <time>2016-12-18T12:34:34Z</time>
      </trkpt>
      <trkpt lat="44.12677" lon="7.18057">
        <ele>2232.96</ele>
        <time>2016-12-18T12:35:33Z</time>
      </trkpt>
      <trkpt lat="44.1266" lon="7.18051">
        <ele>2243.35</ele>
        <time>2016-12-18T12:36:41Z</time>
      </trkpt>
      <trkpt lat="44.12641" lon="7.1805">
        <ele>2246.37</ele>
        <time>2016-12-18T12:36:57Z</time>
      </trkpt>
      <trkpt lat="44.12631" lon="7.18028">
        <ele>2254.36</ele>
        <time>2016-12-18T12:38:02Z</time>
      </trkpt>
      <trkpt lat="44.12615" lon="7.18041">
        <ele>2263.51</ele>
        <time>2016-12-18T12:38:37Z</time>
      </trkpt>
      <trkpt lat="44.12598" lon="7.18056">
        <ele>2266.28</ele>
        <time>2016-12-18T12:39:06Z</time>
      </trkpt>
      <trkpt lat="44.12582" lon="7.18065">
        <ele>2271.74</ele>
        <time>2016-12-18T12:39:39Z</time>
      </trkpt>
      <trkpt lat="44.12564" lon="7.18071">
        <ele>2274.58</ele>
        <time>2016-12-18T12:40:25Z</time>
      </trkpt>
      <trkpt lat="44.12546" lon="7.18075">
        <ele>2275.35</ele>
        <time>2016-12-18T12:40:56Z</time>
      </trkpt>
      <trkpt lat="44.12529" lon="7.18084">
        <ele>2284.52</ele>
        <time>2016-12-18T12:41:24Z</time>
      </trkpt>
      <trkpt lat="44.12511" lon="7.1809">
        <ele>2286.36</ele>
        <time>2016-12-18T12:41:54Z</time>
      </trkpt>
      <trkpt lat="44.12496" lon="7.18106">
        <ele>2299.67</ele>
        <time>2016-12-18T12:42:24Z</time>
      </trkpt>
      <trkpt lat="44.12488" lon="7.18082">
        <ele>2302.6</ele>
        <time>2016-12-18T12:43:42Z</time>
      </trkpt>
      <trkpt lat="44.12474" lon="7.18063">
        <ele>2299.51</ele>
        <time>2016-12-18T12:44:51Z</time>
      </trkpt>
      <trkpt lat="44.12456" lon="7.18055">
        <ele>2311.55</ele>
        <time>2016-12-18T12:45:46Z</time>
      </trkpt>
      <trkpt lat="44.12439" lon="7.18066">
        <ele>2314.78</ele>
        <time>2016-12-18T12:46:04Z</time>
      </trkpt>
      <trkpt lat="44.12432" lon="7.18089">
        <ele>2338.14</ele>
        <time>2016-12-18T12:47:11Z</time>
      </trkpt>
      <trkpt lat="44.12414" lon="7.18085">
        <ele>2334.61</ele>
        <time>2016-12-18T12:47:39Z</time>
      </trkpt>
      <trkpt lat="44.12396" lon="7.1809">
        <ele>2346.34</ele>
        <time>2016-12-18T12:48:42Z</time>
      </trkpt>
      <trkpt lat="44.12376" lon="7.18085">
        <ele>2353.77</ele>
        <time>2016-12-18T12:49:36Z</time>
      </trkpt>
      <trkpt lat="44.12358" lon="7.18079">
        <ele>2352.7</ele>
        <time>2016-12-18T12:50:43Z</time>
      </trkpt>
      <trkpt lat="44.12339" lon="7.18082">
        <ele>2362.56</ele>
        <time>2016-12-18T12:51:28Z</time>
      </trkpt>
      <trkpt lat="44.12321" lon="7.18081">
        <ele>2367.72</ele>
        <time>2016-12-18T12:51:51Z</time>
      </trkpt>
      <trkpt lat="44.12303" lon="7.18095">
        <ele>2376.75</ele>
        <time>2016-12-18T12:52:12Z</time>
      </trkpt>
      <trkpt lat="44.12292" lon="7.18073">
        <ele>2374.57</ele>
        <time>2016-12-18T12:52:43Z</time>
      </trkpt>
      <trkpt lat="44.12276" lon="7.18061">
        <ele>2370.78</ele>
        <time>2016-12-18T12:53:21Z</time>
      </trkpt>
      <trkpt lat="44.12256" lon="7.18056">
        <ele>2377.35</ele>
        <time>2016-12-18T12:54:23Z</time>
      </trkpt>
      <trkpt lat="44.1224" lon="7.18043">
        <ele>2374.75</ele>
        <time>2016-12-18T12:55:02Z</time>
      </trkpt>
      <trkpt lat="44.12224" lon="7.18029">
        <ele>2378.51</ele>
        <time>2016-12-18T12:55:36Z</time>
      </trkpt>
      <trkpt lat="44.12209" lon="7.18013">
        <ele>2375.66</ele>
        <time>2016-12-18T12:55:49Z</time>
      </trkpt>
      <trkpt lat="44.12196" lon="7.17995">
        <ele>2394.74</ele>
        <time>2016-12-18T12:56:52Z</time>
      </trkpt>
      <trkpt lat="44.12177" lon="7.17996">
        <ele>2406.7</ele>
        <time>2016-12-18T12:57:56Z</time>
      </trkpt>
      <trkpt lat="44.12161" lon="7.17984">
        <ele>2428.75</ele>
        <time>2016-12-18T12:59:20Z</time>
      </trkpt>
      <trkpt lat="44.12143" lon="7.17983">
        <ele>2425.76</ele>
        <time>2016-12-18T13:00:10Z</time>
      </trkpt>
      <trkpt lat="44.12125" lon="7.17992">
        <ele>2424.56</ele>
        <time>2016-12-18T13:01:53Z</time>
      </trkpt>
      <trkpt lat="44.12119" lon="7.17968">
        <ele>2443.51</ele>
        <time>2016-12-18T13:03:09Z</time>
      </trkpt>
      <trkpt lat="44.12109" lon="7.17946">
        <ele>2445.74</ele>
        <time>2016-12-18T13:03:25Z</time>
      </trkpt>
      <trkpt lat="44.12092" lon="7.17935">
        <ele>2459.11</ele>
        <time>2016-12-18T13:05:31Z</time>
      </trkpt>
      <trkpt lat="44.12086" lon="7.17911">
        <ele>2477.5</ele>
        <time>2016-12-18T13:07:13Z</time>
      </trkpt>
      <trkpt lat="44.12071" lon="7.17925">
        <ele>2497.39</ele>
        <time>2016-12-18T13:14:24Z</time>
      </trkpt>
      <trkpt lat="44.12052" lon="7.17936">
        <ele>2485.47</ele>
        <time>2016-12-18T13:32:25Z</time>
      </trkpt>
      <trkpt lat="44.12034" lon="7.17954">
        <ele>2480.39</ele>
        <time>2016-12-18T13:32:34Z</time>
      </trkpt>
      <trkpt lat="44.12017" lon="7.17947">
        <ele>2478.47</ele>
        <time>2016-12-18T13:32:51Z</time>
      </trkpt>
      <trkpt lat="44.11996" lon="7.1796">
        <ele>2476.56</ele>
        <time>2016-12-18T13:32:58Z</time>
      </trkpt>
      <trkpt lat="44.1198" lon="7.17977">
        <ele>2469.87</ele>
        <time>2016-12-18T13:33:02Z</time>
      </trkpt>
      <trkpt lat="44.11969" lon="7.17999">
        <ele>2466.03</ele>
        <time>2016-12-18T13:33:06Z</time>
      </trkpt>
      <trkpt lat="44.11957" lon="7.18019">
        <ele>2460.64</ele>
        <time>2016-12-18T13:33:11Z</time>
      </trkpt>
      <trkpt lat="44.11947" lon="7.18042">
        <ele>2457.6</ele>
        <time>2016-12-18T13:33:15Z</time>
      </trkpt>
      <trkpt lat="44.11933" lon="7.18025">
        <ele>2452.55</ele>
        <time>2016-12-18T13:33:27Z</time>
      </trkpt>
      <trkpt lat="44.11912" lon="7.18038">
        <ele>2449.03</ele>
        <time>2016-12-18T13:33:31Z</time>
      </trkpt>
      <trkpt lat="44.11895" lon="7.1805">
        <ele>2443.45</ele>
        <time>2016-12-18T13:33:35Z</time>
      </trkpt>
      <trkpt lat="44.11875" lon="7.18063">
        <ele>2435.05</ele>
        <time>2016-12-18T13:33:39Z</time>
      </trkpt>
      <trkpt lat="44.11857" lon="7.18075">
        <ele>2432.43</ele>
        <time>2016-12-18T13:33:43Z</time>
      </trkpt>
      <trkpt lat="44.11842" lon="7.18091">
        <ele>2431.58</ele>
        <time>2016-12-18T13:33:49Z</time>
      </trkpt>
      <trkpt lat="44.11831" lon="7.18111">
        <ele>2424.59</ele>
        <time>2016-12-18T13:34:02Z</time>
      </trkpt>
      <trkpt lat="44.11817" lon="7.18127">
        <ele>2436.22</ele>
        <time>2016-12-18T13:34:09Z</time>
      </trkpt>
      <trkpt lat="44.11804" lon="7.18147">
        <ele>2425.25</ele>
        <time>2016-12-18T13:34:13Z</time>
      </trkpt>
      <trkpt lat="44.11817" lon="7.18167">
        <ele>2415.54</ele>
        <time>2016-12-18T13:36:48Z</time>
      </trkpt>
      <trkpt lat="44.11819" lon="7.18194">
        <ele>2414.78</ele>
        <time>2016-12-18T13:36:51Z</time>
      </trkpt>
      <trkpt lat="44.11814" lon="7.18221">
        <ele>2407.81</ele>
        <time>2016-12-18T13:36:57Z</time>
      </trkpt>
      <trkpt lat="44.118" lon="7.18243">
        <ele>2402.83</ele>
        <time>2016-12-18T13:37:03Z</time>
      </trkpt>
      <trkpt lat="44.1179" lon="7.18267">
        <ele>2399.21</ele>
        <time>2016-12-18T13:37:11Z</time>
      </trkpt>
      <trkpt lat="44.11777" lon="7.18285">
        <ele>2402.55</ele>
        <time>2016-12-18T13:37:39Z</time>
      </trkpt>
      <trkpt lat="44.11778" lon="7.18313">
        <ele>2397.44</ele>
        <time>2016-12-18T13:38:17Z</time>
      </trkpt>
      <trkpt lat="44.11786" lon="7.18336">
        <ele>2391.79</ele>
        <time>2016-12-18T13:38:22Z</time>
      </trkpt>
      <trkpt lat="44.11797" lon="7.18358">
        <ele>2379.36</ele>
        <time>2016-12-18T13:38:33Z</time>
      </trkpt>
      <trkpt lat="44.11777" lon="7.18357">
        <ele>2370.36</ele>
        <time>2016-12-18T13:38:47Z</time>
      </trkpt>
      <trkpt lat="44.11759" lon="7.18353">
        <ele>2366.75</ele>
        <time>2016-12-18T13:38:52Z</time>
      </trkpt>
      <trkpt lat="44.11742" lon="7.18363">
        <ele>2362.36</ele>
        <time>2016-12-18T13:38:57Z</time>
      </trkpt>
      <trkpt lat="44.11723" lon="7.18365">
        <ele>2357.36</ele>
        <time>2016-12-18T13:39:05Z</time>
      </trkpt>
      <trkpt lat="44.11737" lon="7.18388">
        <ele>2347.39</ele>
        <time>2016-12-18T13:39:37Z</time>
      </trkpt>
      <trkpt lat="44.11718" lon="7.18405">
        <ele>2336.18</ele>
        <time>2016-12-18T13:39:43Z</time>
      </trkpt>
      <trkpt lat="44.117" lon="7.18412">
        <ele>2329.83</ele>
        <time>2016-12-18T13:39:49Z</time>
      </trkpt>
      <trkpt lat="44.1172" lon="7.18425">
        <ele>2321.45</ele>
        <time>2016-12-18T13:40:07Z</time>
      </trkpt>
      <trkpt lat="44.1173" lon="7.18446">
        <ele>2325.23</ele>
        <time>2016-12-18T13:40:12Z</time>
      </trkpt>
      <trkpt lat="44.11735" lon="7.18473">
        <ele>2322.73</ele>
        <time>2016-12-18T13:40:19Z</time>
      </trkpt>
      <trkpt lat="44.11737" lon="7.18504">
        <ele>2324.19</ele>
        <time>2016-12-18T13:40:23Z</time>
      </trkpt>
      <trkpt lat="44.1173" lon="7.18529">
        <ele>2323.28</ele>
        <time>2016-12-18T13:40:28Z</time>
      </trkpt>
      <trkpt lat="44.11713" lon="7.18537">
        <ele>2324.55</ele>
        <time>2016-12-18T13:40:32Z</time>
      </trkpt>
      <trkpt lat="44.11694" lon="7.18532">
        <ele>2312.75</ele>
        <time>2016-12-18T13:41:17Z</time>
      </trkpt>
      <trkpt lat="44.11673" lon="7.18531">
        <ele>2312.48</ele>
        <time>2016-12-18T13:41:23Z</time>
      </trkpt>
      <trkpt lat="44.11652" lon="7.18534">
        <ele>2306.84</ele>
        <time>2016-12-18T13:41:28Z</time>
      </trkpt>
      <trkpt lat="44.11632" lon="7.18539">
        <ele>2303.8</ele>
        <time>2016-12-18T13:41:32Z</time>
      </trkpt>
      <trkpt lat="44.11608" lon="7.18551">
        <ele>2302.63</ele>
        <time>2016-12-18T13:41:36Z</time>
      </trkpt>
      <trkpt lat="44.11589" lon="7.18558">
        <ele>2298.03</ele>
        <time>2016-12-18T13:41:40Z</time>
      </trkpt>
      <trkpt lat="44.11568" lon="7.1857">
        <ele>2296.56</ele>
        <time>2016-12-18T13:41:45Z</time>
      </trkpt>
      <trkpt lat="44.11548" lon="7.18584">
        <ele>2297.19</ele>
        <time>2016-12-18T13:41:49Z</time>
      </trkpt>
      <trkpt lat="44.1153" lon="7.18596">
        <ele>2248.6</ele>
        <time>2016-12-18T13:41:53Z</time>
      </trkpt>
      <trkpt lat="44.11513" lon="7.18607">
        <ele>2271.52</ele>
        <time>2016-12-18T13:41:56Z</time>
      </trkpt>
      <trkpt lat="44.11495" lon="7.18617">
        <ele>2276.47</ele>
        <time>2016-12-18T13:42:01Z</time>
      </trkpt>
      <trkpt lat="44.11472" lon="7.18641">
        <ele>2277.35</ele>
        <time>2016-12-18T13:42:04Z</time>
      </trkpt>
      <trkpt lat="44.11455" lon="7.18653">
        <ele>2274.68</ele>
        <time>2016-12-18T13:42:11Z</time>
      </trkpt>
      <trkpt lat="44.11451" lon="7.18683">
        <ele>2275.03</ele>
        <time>2016-12-18T13:42:37Z</time>
      </trkpt>
      <trkpt lat="44.11451" lon="7.1871">
        <ele>2275.74</ele>
        <time>2016-12-18T13:42:43Z</time>
      </trkpt>
      <trkpt lat="44.11434" lon="7.18719">
        <ele>2267.85</ele>
        <time>2016-12-18T13:42:48Z</time>
      </trkpt>
      <trkpt lat="44.11419" lon="7.18705">
        <ele>2263.83</ele>
        <time>2016-12-18T13:42:52Z</time>
      </trkpt>
      <trkpt lat="44.11404" lon="7.18691">
        <ele>2261.4</ele>
        <time>2016-12-18T13:42:57Z</time>
      </trkpt>
      <trkpt lat="44.11386" lon="7.18684">
        <ele>2261.36</ele>
        <time>2016-12-18T13:43:02Z</time>
      </trkpt>
      <trkpt lat="44.11391" lon="7.1871">
        <ele>2262.75</ele>
        <time>2016-12-18T13:43:08Z</time>
      </trkpt>
      <trkpt lat="44.11393" lon="7.18736">
        <ele>2257.76</ele>
        <time>2016-12-18T13:43:14Z</time>
      </trkpt>
      <trkpt lat="44.11403" lon="7.1876">
        <ele>2255.56</ele>
        <time>2016-12-18T13:43:19Z</time>
      </trkpt>
      <trkpt lat="44.1141" lon="7.18784">
        <ele>2252.52</ele>
        <time>2016-12-18T13:43:25Z</time>
      </trkpt>
      <trkpt lat="44.11394" lon="7.18796">
        <ele>2246.52</ele>
        <time>2016-12-18T13:43:33Z</time>
      </trkpt>
      <trkpt lat="44.11382" lon="7.18775">
        <ele>2243.4</ele>
        <time>2016-12-18T13:43:38Z</time>
      </trkpt>
      <trkpt lat="44.11361" lon="7.18769">
        <ele>2238.01</ele>
        <time>2016-12-18T13:43:42Z</time>
      </trkpt>
      <trkpt lat="44.11338" lon="7.18777">
        <ele>2237.88</ele>
        <time>2016-12-18T13:43:46Z</time>
      </trkpt>
      <trkpt lat="44.11319" lon="7.18779">
        <ele>2235.02</ele>
        <time>2016-12-18T13:43:49Z</time>
      </trkpt>
      <trkpt lat="44.11302" lon="7.18784">
        <ele>2233.78</ele>
        <time>2016-12-18T13:43:52Z</time>
      </trkpt>
      <trkpt lat="44.11282" lon="7.18794">
        <ele>2229.04</ele>
        <time>2016-12-18T13:43:55Z</time>
      </trkpt>
      <trkpt lat="44.11266" lon="7.18807">
        <ele>2226.81</ele>
        <time>2016-12-18T13:43:57Z</time>
      </trkpt>
      <trkpt lat="44.11253" lon="7.18826">
        <ele>2224.95</ele>
        <time>2016-12-18T13:44:00Z</time>
      </trkpt>
      <trkpt lat="44.11239" lon="7.18847">
        <ele>2219.79</ele>
        <time>2016-12-18T13:48:06Z</time>
      </trkpt>
      <trkpt lat="44.11231" lon="7.1887">
        <ele>2216.99</ele>
        <time>2016-12-18T13:48:15Z</time>
      </trkpt>
      <trkpt lat="44.11213" lon="7.1887">
        <ele>2221.54</ele>
        <time>2016-12-18T13:48:44Z</time>
      </trkpt>
      <trkpt lat="44.11193" lon="7.18868">
        <ele>2221.35</ele>
        <time>2016-12-18T13:49:25Z</time>
      </trkpt>
      <trkpt lat="44.11175" lon="7.18866">
        <ele>2218.52</ele>
        <time>2016-12-18T13:49:32Z</time>
      </trkpt>
      <trkpt lat="44.11157" lon="7.18872">
        <ele>2216.55</ele>
        <time>2016-12-18T13:49:40Z</time>
      </trkpt>
      <trkpt lat="44.1114" lon="7.18885">
        <ele>2215.55</ele>
        <time>2016-12-18T13:49:46Z</time>
      </trkpt>
      <trkpt lat="44.11119" lon="7.18898">
        <ele>2212.78</ele>
        <time>2016-12-18T13:49:51Z</time>
      </trkpt>
      <trkpt lat="44.11101" lon="7.18912">
        <ele>2205.09</ele>
        <time>2016-12-18T13:49:56Z</time>
      </trkpt>
      <trkpt lat="44.11081" lon="7.18926">
        <ele>2200.76</ele>
        <time>2016-12-18T13:50:01Z</time>
      </trkpt>
      <trkpt lat="44.11061" lon="7.18943">
        <ele>2194.85</ele>
        <time>2016-12-18T13:50:05Z</time>
      </trkpt>
      <trkpt lat="44.11047" lon="7.18959">
        <ele>2193.72</ele>
        <time>2016-12-18T13:50:08Z</time>
      </trkpt>
      <trkpt lat="44.11028" lon="7.18967">
        <ele>2189.57</ele>
        <time>2016-12-18T13:50:13Z</time>
      </trkpt>
      <trkpt lat="44.1101" lon="7.18971">
        <ele>2188.42</ele>
        <time>2016-12-18T13:50:17Z</time>
      </trkpt>
      <trkpt lat="44.10989" lon="7.18975">
        <ele>2186.94</ele>
        <time>2016-12-18T13:50:21Z</time>
      </trkpt>
      <trkpt lat="44.1097" lon="7.18969">
        <ele>2184.78</ele>
        <time>2016-12-18T13:50:29Z</time>
      </trkpt>
      <trkpt lat="44.10955" lon="7.18953">
        <ele>2180.8</ele>
        <time>2016-12-18T13:50:35Z</time>
      </trkpt>
      <trkpt lat="44.10937" lon="7.18942">
        <ele>2176.6</ele>
        <time>2016-12-18T13:50:43Z</time>
      </trkpt>
      <trkpt lat="44.10917" lon="7.18934">
        <ele>2174.59</ele>
        <time>2016-12-18T13:50:49Z</time>
      </trkpt>
      <trkpt lat="44.109" lon="7.18926">
        <ele>2174.18</ele>
        <time>2016-12-18T13:50:57Z</time>
      </trkpt>
      <trkpt lat="44.10884" lon="7.18914">
        <ele>2179.55</ele>
        <time>2016-12-18T13:53:53Z</time>
      </trkpt>
      <trkpt lat="44.10866" lon="7.18911">
        <ele>2182.56</ele>
        <time>2016-12-18T13:54:14Z</time>
      </trkpt>
      <trkpt lat="44.10849" lon="7.18901">
        <ele>2181.34</ele>
        <time>2016-12-18T13:54:30Z</time>
      </trkpt>
      <trkpt lat="44.1083" lon="7.189">
        <ele>2177.55</ele>
        <time>2016-12-18T13:55:04Z</time>
      </trkpt>
      <trkpt lat="44.10811" lon="7.18898">
        <ele>2176.54</ele>
        <time>2016-12-18T13:55:23Z</time>
      </trkpt>
      <trkpt lat="44.10793" lon="7.18893">
        <ele>2178.58</ele>
        <time>2016-12-18T13:55:36Z</time>
      </trkpt>
      <trkpt lat="44.10774" lon="7.18891">
        <ele>2178.55</ele>
        <time>2016-12-18T13:55:50Z</time>
      </trkpt>
      <trkpt lat="44.10756" lon="7.18891">
        <ele>2179.35</ele>
        <time>2016-12-18T13:56:06Z</time>
      </trkpt>
      <trkpt lat="44.10737" lon="7.18898">
        <ele>2176.34</ele>
        <time>2016-12-18T13:56:23Z</time>
      </trkpt>
      <trkpt lat="44.10719" lon="7.18903">
        <ele>2172.75</ele>
        <time>2016-12-18T13:56:38Z</time>
      </trkpt>
      <trkpt lat="44.10702" lon="7.18912">
        <ele>2171.36</ele>
        <time>2016-12-18T13:56:54Z</time>
      </trkpt>
      <trkpt lat="44.10684" lon="7.18918">
        <ele>2169.78</ele>
        <time>2016-12-18T13:57:11Z</time>
      </trkpt>
      <trkpt lat="44.10666" lon="7.18923">
        <ele>2168.55</ele>
        <time>2016-12-18T13:57:33Z</time>
      </trkpt>
      <trkpt lat="44.10647" lon="7.18923">
        <ele>2166.55</ele>
        <time>2016-12-18T13:57:55Z</time>
      </trkpt>
      <trkpt lat="44.10629" lon="7.1892">
        <ele>2173.55</ele>
        <time>2016-12-18T13:58:25Z</time>
      </trkpt>
      <trkpt lat="44.1061" lon="7.18917">
        <ele>2176.58</ele>
        <time>2016-12-18T13:58:55Z</time>
      </trkpt>
      <trkpt lat="44.10593" lon="7.18923">
        <ele>2176.5</ele>
        <time>2016-12-18T13:59:20Z</time>
      </trkpt>
      <trkpt lat="44.10575" lon="7.18929">
        <ele>2175.74</ele>
        <time>2016-12-18T13:59:34Z</time>
      </trkpt>
      <trkpt lat="44.10557" lon="7.18924">
        <ele>2174.55</ele>
        <time>2016-12-18T13:59:51Z</time>
      </trkpt>
      <trkpt lat="44.10544" lon="7.18906">
        <ele>2174.79</ele>
        <time>2016-12-18T14:00:06Z</time>
      </trkpt>
      <trkpt lat="44.10528" lon="7.18892">
        <ele>2173.79</ele>
        <time>2016-12-18T14:00:22Z</time>
      </trkpt>
      <trkpt lat="44.10514" lon="7.18877">
        <ele>2170.51</ele>
        <time>2016-12-18T14:00:41Z</time>
      </trkpt>
      <trkpt lat="44.10497" lon="7.18866">
        <ele>2170.54</ele>
        <time>2016-12-18T14:01:10Z</time>
      </trkpt>
      <trkpt lat="44.1048" lon="7.18857">
        <ele>2171.35</ele>
        <time>2016-12-18T14:01:28Z</time>
      </trkpt>
      <trkpt lat="44.10463" lon="7.18844">
        <ele>2173.33</ele>
        <time>2016-12-18T14:02:01Z</time>
      </trkpt>
      <trkpt lat="44.10445" lon="7.18842">
        <ele>2175.34</ele>
        <time>2016-12-18T14:02:42Z</time>
      </trkpt>
      <trkpt lat="44.10427" lon="7.18837">
        <ele>2177.75</ele>
        <time>2016-12-18T14:03:23Z</time>
      </trkpt>
      <trkpt lat="44.10409" lon="7.18829">
        <ele>2181.75</ele>
        <time>2016-12-18T14:03:46Z</time>
      </trkpt>
      <trkpt lat="44.10391" lon="7.18827">
        <ele>2191.59</ele>
        <time>2016-12-18T14:19:20Z</time>
      </trkpt>
      <trkpt lat="44.10374" lon="7.18841">
        <ele>2180.44</ele>
        <time>2016-12-18T14:20:00Z</time>
      </trkpt>
      <trkpt lat="44.10355" lon="7.18843">
        <ele>2175.56</ele>
        <time>2016-12-18T14:20:34Z</time>
      </trkpt>
      <trkpt lat="44.10337" lon="7.18842">
        <ele>2179.36</ele>
        <time>2016-12-18T14:21:05Z</time>
      </trkpt>
      <trkpt lat="44.1032" lon="7.1885">
        <ele>2177.59</ele>
        <time>2016-12-18T14:21:24Z</time>
      </trkpt>
      <trkpt lat="44.10308" lon="7.1887">
        <ele>2162.75</ele>
        <time>2016-12-18T14:22:17Z</time>
      </trkpt>
      <trkpt lat="44.10292" lon="7.18887">
        <ele>2162.31</ele>
        <time>2016-12-18T14:23:08Z</time>
      </trkpt>
      <trkpt lat="44.1028" lon="7.18908">
        <ele>2154.71</ele>
        <time>2016-12-18T14:23:28Z</time>
      </trkpt>
      <trkpt lat="44.10261" lon="7.18901">
        <ele>2140.39</ele>
        <time>2016-12-18T14:24:20Z</time>
      </trkpt>
      <trkpt lat="44.10243" lon="7.189">
        <ele>2140.35</ele>
        <time>2016-12-18T14:24:41Z</time>
      </trkpt>
      <trkpt lat="44.10225" lon="7.18895">
        <ele>2131.59</ele>
        <time>2016-12-18T14:25:11Z</time>
      </trkpt>
      <trkpt lat="44.10206" lon="7.18892">
        <ele>2126.38</ele>
        <time>2016-12-18T14:25:42Z</time>
      </trkpt>
      <trkpt lat="44.1019" lon="7.1888">
        <ele>2116.71</ele>
        <time>2016-12-18T14:26:12Z</time>
      </trkpt>
      <trkpt lat="44.10176" lon="7.18864">
        <ele>2113.36</ele>
        <time>2016-12-18T14:26:34Z</time>
      </trkpt>
      <trkpt lat="44.10161" lon="7.18848">
        <ele>2111.8</ele>
        <time>2016-12-18T14:26:55Z</time>
      </trkpt>
      <trkpt lat="44.10149" lon="7.18828">
        <ele>2103.55</ele>
        <time>2016-12-18T14:27:20Z</time>
      </trkpt>
      <trkpt lat="44.10133" lon="7.18818">
        <ele>2101.55</ele>
        <time>2016-12-18T14:27:40Z</time>
      </trkpt>
      <trkpt lat="44.10115" lon="7.18807">
        <ele>2089.56</ele>
        <time>2016-12-18T14:28:06Z</time>
      </trkpt>
      <trkpt lat="44.101" lon="7.18793">
        <ele>2084.52</ele>
        <time>2016-12-18T14:28:23Z</time>
      </trkpt>
      <trkpt lat="44.10081" lon="7.18791">
        <ele>2083.59</ele>
        <time>2016-12-18T14:28:43Z</time>
      </trkpt>
      <trkpt lat="44.10063" lon="7.18785">
        <ele>2080.51</ele>
        <time>2016-12-18T14:29:12Z</time>
      </trkpt>
      <trkpt lat="44.10048" lon="7.18769">
        <ele>2067.79</ele>
        <time>2016-12-18T14:29:33Z</time>
      </trkpt>
      <trkpt lat="44.10035" lon="7.1875">
        <ele>2064.92</ele>
        <time>2016-12-18T14:29:52Z</time>
      </trkpt>
      <trkpt lat="44.10021" lon="7.18732">
        <ele>2060.35</ele>
        <time>2016-12-18T14:30:09Z</time>
      </trkpt>
      <trkpt lat="44.10003" lon="7.18724">
        <ele>2059.55</ele>
        <time>2016-12-18T14:30:25Z</time>
      </trkpt>
      <trkpt lat="44.09983" lon="7.18717">
        <ele>2052.42</ele>
        <time>2016-12-18T14:30:44Z</time>
      </trkpt>
      <trkpt lat="44.09965" lon="7.18707">
        <ele>2051.55</ele>
        <time>2016-12-18T14:30:57Z</time>
      </trkpt>
      <trkpt lat="44.09947" lon="7.187">
        <ele>2046.55</ele>
        <time>2016-12-18T14:31:18Z</time>
      </trkpt>
      <trkpt lat="44.0993" lon="7.18689">
        <ele>2046.55</ele>
        <time>2016-12-18T14:31:30Z</time>
      </trkpt>
      <trkpt lat="44.09912" lon="7.1868">
        <ele>2044.31</ele>
        <time>2016-12-18T14:31:48Z</time>
      </trkpt>
      <trkpt lat="44.09894" lon="7.18673">
        <ele>2038.59</ele>
        <time>2016-12-18T14:32:04Z</time>
      </trkpt>
      <trkpt lat="44.09878" lon="7.18659">
        <ele>2033.75</ele>
        <time>2016-12-18T14:32:22Z</time>
      </trkpt>
      <trkpt lat="44.0986" lon="7.18652">
        <ele>2033.8</ele>
        <time>2016-12-18T14:32:41Z</time>
      </trkpt>
      <trkpt lat="44.09848" lon="7.18633">
        <ele>2029.6</ele>
        <time>2016-12-18T14:35:37Z</time>
      </trkpt>
    </trkseg>
  </trk>
</gpx>